首页
METAR-TAF:

METAR-TAF

机场 :

澳門國際機場

澳門, 中华人民共和国

纬度: 22-10N, 经度: 113-34E, 海拔: 114米

当前天气观测

该预报发布于27分钟前的00:00 UTC
风速16节,风向
温度 13°C
湿度 82%
气压 1022 hPa
能见度10公里或以上
少量云层高于1500英尺
散云层高于2000英尺

METAR: VMMC 260000Z 36016KT 9999 FEW015 SCT020 13/10 Q1022 NOSIG

时间: 08:27 (00:27 UTC)

预报

该预报发布于1小时和27分钟前的23:00 UTC
预报有效从26日的 00点(UTC)到 27日的 06点(UTC)
风速13节,风向
能见度10公里或以上
少量云层高于2000英尺
散云层高于3500英尺

TAF: VMMC 252300Z 2600/2706 01013KT 9999 FEW020 SCT035

超过4000个机场的气象观测和天气预报(METAR&TAF报告)。

可查询的气象台以黄色和红色小点在地图上表示。

将鼠标移到小点上方,可查看气象台名称。

然后点击查看天气观测和预报。

如需切换地图:点击带黑十字的绿色按钮放大地图;点击带横线的绿色按钮缩小地图;或者点击绿色箭头查看邻近地区的地图。


METAR-TAF: